Batsfjord, Batsfjord Airport (ENBS)

NameBatsfjord Airport
CityBatsfjord
CountryNorway
ICAOENBS
IATABJF
Altitude149 m
CoordinatesGoogle Map
Live Air TrafficLiveATC.net
METARENBS 172050Z 15004KT 9999 FEW014 SCT045 M07/M08 Q0990
2019-01-17 20:50:00 Wind: Southeast (150°) 2.06 m/s - Visibility: > 10000 m - Temperature: -7 °C - Dew point: -8 °C - Humidity: 92.7% - Pressure: 0990 hPa
Statistics

The table below shows the detailed information of all flights to/from Batsfjord, Batsfjord Airport (ENBS).